sensor_id;sensor_type;location;lat;lon;timestamp;P1;durP1;ratioP1;P2;durP2;ratioP2
56511;SDS011;42408;53.238;5.686;2023-07-31T00:00:06;11.53;;;2.70;;
56511;SDS011;42408;53.238;5.686;2023-07-31T00:02:34;7.68;;;2.50;;
56511;SDS011;42408;53.238;5.686;2023-07-31T00:05:00;9.02;;;2.40;;
56511;SDS011;42408;53.238;5.686;2023-07-31T00:07:26;7.28;;;2.47;;
56511;SDS011;42408;53.238;5.686;2023-07-31T00:09:52;6.73;;;2.53;;
56511;SDS011;42408;53.238;5.686;2023-07-31T00:12:18;8.48;;;2.47;;
56511;SDS011;42408;53.238;5.686;2023-07-31T00:14:45;11.25;;;2.63;;
56511;SDS011;42408;53.238;5.686;2023-07-31T00:17:11;8.43;;;2.50;;
56511;SDS011;42408;53.238;5.686;2023-07-31T00:19:36;7.50;;;2.22;;
56511;SDS011;42408;53.238;5.686;2023-07-31T00:22:02;8.50;;;2.57;;
56511;SDS011;42408;53.238;5.686;2023-07-31T00:24:28;9.40;;;2.50;;
56511;SDS011;42408;53.238;5.686;2023-07-31T00:26:54;9.20;;;2.47;;
56511;SDS011;42408;53.238;5.686;2023-07-31T00:29:19;7.50;;;2.20;;
56511;SDS011;42408;53.238;5.686;2023-07-31T00:31:45;7.10;;;2.27;;
56511;SDS011;42408;53.238;5.686;2023-07-31T00:34:10;7.80;;;2.47;;
56511;SDS011;42408;53.238;5.686;2023-07-31T00:36:36;6.93;;;2.77;;
56511;SDS011;42408;53.238;5.686;2023-07-31T00:39:02;7.93;;;2.50;;
56511;SDS011;42408;53.238;5.686;2023-07-31T00:41:27;7.93;;;2.83;;
56511;SDS011;42408;53.238;5.686;2023-07-31T00:43:53;8.43;;;2.50;;
56511;SDS011;42408;53.238;5.686;2023-07-31T00:46:19;9.10;;;2.80;;
56511;SDS011;42408;53.238;5.686;2023-07-31T00:48:45;7.68;;;2.17;;
56511;SDS011;42408;53.238;5.686;2023-07-31T00:51:11;6.57;;;2.27;;
56511;SDS011;42408;53.238;5.686;2023-07-31T00:53:37;6.23;;;2.20;;
56511;SDS011;42408;53.238;5.686;2023-07-31T00:56:03;9.65;;;2.50;;
56511;SDS011;42408;53.238;5.686;2023-07-31T00:58:30;10.07;;;2.63;;
56511;SDS011;42408;53.238;5.686;2023-07-31T01:00:56;9.10;;;2.72;;
56511;SDS011;42408;53.238;5.686;2023-07-31T01:03:21;5.83;;;2.23;;
56511;SDS011;42408;53.238;5.686;2023-07-31T01:08:33;5.93;;;2.40;;
56511;SDS011;42408;53.238;5.686;2023-07-31T01:11:19;8.57;;;2.70;;
56511;SDS011;42408;53.238;5.686;2023-07-31T01:13:52;9.40;;;2.65;;
56511;SDS011;42408;53.238;5.686;2023-07-31T01:16:19;7.90;;;2.70;;
56511;SDS011;42408;53.238;5.686;2023-07-31T01:18:44;9.73;;;2.57;;
56511;SDS011;42408;53.238;5.686;2023-07-31T01:21:28;11.83;;;2.53;;
56511;SDS011;42408;53.238;5.686;2023-07-31T01:26:33;11.02;;;3.00;;
56511;SDS011;42408;53.238;5.686;2023-07-31T01:29:03;9.57;;;3.30;;
56511;SDS011;42408;53.238;5.686;2023-07-31T01:31:42;9.30;;;2.58;;
56511;SDS011;42408;53.238;5.686;2023-07-31T01:34:13;10.57;;;2.40;;
56511;SDS011;42408;53.238;5.686;2023-07-31T01:36:40;8.77;;;2.88;;
56511;SDS011;42408;53.238;5.686;2023-07-31T01:39:06;6.30;;;2.93;;
56511;SDS011;42408;53.238;5.686;2023-07-31T01:41:32;8.33;;;2.77;;
56511;SDS011;42408;53.238;5.686;2023-07-31T01:43:57;10.63;;;3.17;;
56511;SDS011;42408;53.238;5.686;2023-07-31T01:46:23;8.40;;;2.90;;
56511;SDS011;42408;53.238;5.686;2023-07-31T01:48:49;11.17;;;2.90;;
56511;SDS011;42408;53.238;5.686;2023-07-31T01:51:14;9.83;;;2.83;;
56511;SDS011;42408;53.238;5.686;2023-07-31T01:53:40;9.20;;;2.37;;
56511;SDS011;42408;53.238;5.686;2023-07-31T01:56:05;10.37;;;3.10;;
56511;SDS011;42408;53.238;5.686;2023-07-31T01:58:31;7.83;;;2.77;;
56511;SDS011;42408;53.238;5.686;2023-07-31T02:00:57;7.07;;;2.60;;
56511;SDS011;42408;53.238;5.686;2023-07-31T02:03:22;7.90;;;2.13;;
56511;SDS011;42408;53.238;5.686;2023-07-31T02:05:48;7.33;;;2.23;;
56511;SDS011;42408;53.238;5.686;2023-07-31T02:08:14;5.72;;;2.28;;
56511;SDS011;42408;53.238;5.686;2023-07-31T02:10:41;7.72;;;2.60;;
56511;SDS011;42408;53.238;5.686;2023-07-31T02:13:07;6.90;;;2.30;;
56511;SDS011;42408;53.238;5.686;2023-07-31T02:15:32;6.70;;;2.30;;
56511;SDS011;42408;53.238;5.686;2023-07-31T02:17:58;8.70;;;2.27;;
56511;SDS011;42408;53.238;5.686;2023-07-31T02:20:24;6.43;;;2.50;;
56511;SDS011;42408;53.238;5.686;2023-07-31T02:22:50;8.43;;;2.30;;
56511;SDS011;42408;53.238;5.686;2023-07-31T02:25:15;5.17;;;2.40;;
56511;SDS011;42408;53.238;5.686;2023-07-31T02:27:41;6.97;;;2.70;;
56511;SDS011;42408;53.238;5.686;2023-07-31T02:30:07;6.37;;;2.60;;
56511;SDS011;42408;53.238;5.686;2023-07-31T02:32:33;8.52;;;2.80;;
56511;SDS011;42408;53.238;5.686;2023-07-31T02:34:58;8.70;;;2.67;;
56511;SDS011;42408;53.238;5.686;2023-07-31T02:37:24;7.70;;;2.37;;
56511;SDS011;42408;53.238;5.686;2023-07-31T02:39:50;8.80;;;2.40;;
56511;SDS011;42408;53.238;5.686;2023-07-31T02:42:16;5.83;;;2.50;;
56511;SDS011;42408;53.238;5.686;2023-07-31T02:44:41;5.77;;;2.13;;
56511;SDS011;42408;53.238;5.686;2023-07-31T02:47:07;7.00;;;2.30;;
56511;SDS011;42408;53.238;5.686;2023-07-31T02:49:33;5.87;;;2.33;;
56511;SDS011;42408;53.238;5.686;2023-07-31T02:51:59;6.97;;;2.07;;
56511;SDS011;42408;53.238;5.686;2023-07-31T02:54:24;4.20;;;1.87;;
56511;SDS011;42408;53.238;5.686;2023-07-31T02:56:50;7.50;;;2.27;;
56511;SDS011;42408;53.238;5.686;2023-07-31T02:59:16;7.80;;;2.40;;
56511;SDS011;42408;53.238;5.686;2023-07-31T03:01:42;7.03;;;2.60;;
56511;SDS011;42408;53.238;5.686;2023-07-31T03:04:08;7.73;;;2.80;;
56511;SDS011;42408;53.238;5.686;2023-07-31T03:06:33;6.20;;;2.50;;
56511;SDS011;42408;53.238;5.686;2023-07-31T03:08:59;5.67;;;2.53;;
56511;SDS011;42408;53.238;5.686;2023-07-31T03:11:24;2.67;;;1.70;;
56511;SDS011;42408;53.238;5.686;2023-07-31T03:13:50;2.93;;;1.33;;
56511;SDS011;42408;53.238;5.686;2023-07-31T03:16:16;4.30;;;1.80;;
56511;SDS011;42408;53.238;5.686;2023-07-31T03:18:42;5.20;;;1.47;;
56511;SDS011;42408;53.238;5.686;2023-07-31T03:21:07;4.40;;;1.50;;
56511;SDS011;42408;53.238;5.686;2023-07-31T03:23:33;4.73;;;1.40;;
56511;SDS011;42408;53.238;5.686;2023-07-31T03:25:59;3.30;;;1.27;;
56511;SDS011;42408;53.238;5.686;2023-07-31T03:28:26;2.55;;;1.20;;
56511;SDS011;42408;53.238;5.686;2023-07-31T03:30:52;3.13;;;1.20;;
56511;SDS011;42408;53.238;5.686;2023-07-31T03:33:18;2.50;;;0.90;;
56511;SDS011;42408;53.238;5.686;2023-07-31T03:35:44;4.05;;;0.90;;
56511;SDS011;42408;53.238;5.686;2023-07-31T03:38:10;3.30;;;0.90;;
56511;SDS011;42408;53.238;5.686;2023-07-31T03:40:36;1.70;;;0.80;;
56511;SDS011;42408;53.238;5.686;2023-07-31T03:43:01;1.53;;;0.90;;
56511;SDS011;42408;53.238;5.686;2023-07-31T03:45:27;1.70;;;1.00;;
56511;SDS011;42408;53.238;5.686;2023-07-31T03:47:53;1.37;;;0.90;;
56511;SDS011;42408;53.238;5.686;2023-07-31T03:50:19;3.28;;;1.10;;
56511;SDS011;42408;53.238;5.686;2023-07-31T03:52:45;2.45;;;1.35;;
56511;SDS011;42408;53.238;5.686;2023-07-31T03:55:11;3.90;;;2.00;;
56511;SDS011;42408;53.238;5.686;2023-07-31T03:57:37;3.57;;;1.40;;
56511;SDS011;42408;53.238;5.686;2023-07-31T04:00:02;4.17;;;1.60;;
56511;SDS011;42408;53.238;5.686;2023-07-31T04:02:28;4.93;;;1.60;;
56511;SDS011;42408;53.238;5.686;2023-07-31T04:04:54;6.00;;;1.93;;
56511;SDS011;42408;53.238;5.686;2023-07-31T04:07:20;8.03;;;2.10;;
56511;SDS011;42408;53.238;5.686;2023-07-31T04:09:45;12.90;;;3.93;;
56511;SDS011;42408;53.238;5.686;2023-07-31T04:12:11;11.43;;;4.00;;
56511;SDS011;42408;53.238;5.686;2023-07-31T04:14:37;10.53;;;4.53;;
56511;SDS011;42408;53.238;5.686;2023-07-31T04:17:02;15.13;;;5.43;;
56511;SDS011;42408;53.238;5.686;2023-07-31T04:19:28;11.07;;;5.23;;
56511;SDS011;42408;53.238;5.686;2023-07-31T04:21:53;12.20;;;5.03;;
56511;SDS011;42408;53.238;5.686;2023-07-31T04:24:19;11.60;;;4.93;;
56511;SDS011;42408;53.238;5.686;2023-07-31T04:26:49;12.80;;;5.40;;
56511;SDS011;42408;53.238;5.686;2023-07-31T04:29:17;16.08;;;4.82;;
56511;SDS011;42408;53.238;5.686;2023-07-31T04:31:43;13.50;;;5.43;;
56511;SDS011;42408;53.238;5.686;2023-07-31T04:34:08;12.03;;;5.13;;
56511;SDS011;42408;53.238;5.686;2023-07-31T04:36:34;12.63;;;5.40;;
56511;SDS011;42408;53.238;5.686;2023-07-31T04:39:00;13.82;;;5.85;;
56511;SDS011;42408;53.238;5.686;2023-07-31T04:41:26;9.32;;;5.07;;
56511;SDS011;42408;53.238;5.686;2023-07-31T04:43:52;15.43;;;5.60;;
56511;SDS011;42408;53.238;5.686;2023-07-31T04:46:17;15.87;;;4.97;;
56511;SDS011;42408;53.238;5.686;2023-07-31T04:48:43;13.87;;;5.20;;
56511;SDS011;42408;53.238;5.686;2023-07-31T04:51:09;15.87;;;4.53;;
56511;SDS011;42408;53.238;5.686;2023-07-31T04:53:35;11.63;;;4.73;;
56511;SDS011;42408;53.238;5.686;2023-07-31T04:56:01;13.73;;;5.28;;
56511;SDS011;42408;53.238;5.686;2023-07-31T04:58:26;12.13;;;5.60;;
56511;SDS011;42408;53.238;5.686;2023-07-31T05:00:52;15.23;;;5.87;;
56511;SDS011;42408;53.238;5.686;2023-07-31T05:03:18;12.87;;;5.00;;
56511;SDS011;42408;53.238;5.686;2023-07-31T05:05:43;14.70;;;6.40;;
56511;SDS011;42408;53.238;5.686;2023-07-31T05:08:09;15.00;;;5.83;;
56511;SDS011;42408;53.238;5.686;2023-07-31T05:10:34;15.40;;;6.57;;
56511;SDS011;42408;53.238;5.686;2023-07-31T05:13:00;15.43;;;6.37;;
56511;SDS011;42408;53.238;5.686;2023-07-31T05:15:26;15.30;;;7.23;;
56511;SDS011;42408;53.238;5.686;2023-07-31T05:17:51;25.43;;;6.97;;
56511;SDS011;42408;53.238;5.686;2023-07-31T05:20:17;19.87;;;6.77;;
56511;SDS011;42408;53.238;5.686;2023-07-31T05:22:42;16.63;;;8.00;;
56511;SDS011;42408;53.238;5.686;2023-07-31T05:25:08;20.83;;;7.33;;
56511;SDS011;42408;53.238;5.686;2023-07-31T05:27:34;18.00;;;7.00;;
56511;SDS011;42408;53.238;5.686;2023-07-31T05:29:59;18.07;;;8.13;;
56511;SDS011;42408;53.238;5.686;2023-07-31T05:32:25;20.15;;;6.80;;
56511;SDS011;42408;53.238;5.686;2023-07-31T05:34:51;15.53;;;6.13;;
56511;SDS011;42408;53.238;5.686;2023-07-31T05:37:17;14.77;;;5.70;;
56511;SDS011;42408;53.238;5.686;2023-07-31T05:39:43;16.63;;;5.73;;
56511;SDS011;42408;53.238;5.686;2023-07-31T05:42:09;16.03;;;6.10;;
56511;SDS011;42408;53.238;5.686;2023-07-31T05:44:35;15.67;;;5.93;;
56511;SDS011;42408;53.238;5.686;2023-07-31T05:47:00;14.47;;;5.30;;
56511;SDS011;42408;53.238;5.686;2023-07-31T05:49:26;16.00;;;5.50;;
56511;SDS011;42408;53.238;5.686;2023-07-31T05:51:52;13.30;;;5.60;;
56511;SDS011;42408;53.238;5.686;2023-07-31T05:54:17;13.23;;;5.50;;
56511;SDS011;42408;53.238;5.686;2023-07-31T05:56:43;11.27;;;4.77;;
56511;SDS011;42408;53.238;5.686;2023-07-31T05:59:09;11.87;;;4.77;;
56511;SDS011;42408;53.238;5.686;2023-07-31T06:01:37;13.68;;;4.68;;
56511;SDS011;42408;53.238;5.686;2023-07-31T06:04:03;15.63;;;5.10;;
56511;SDS011;42408;53.238;5.686;2023-07-31T06:06:29;11.30;;;4.60;;
56511;SDS011;42408;53.238;5.686;2023-07-31T06:08:54;10.30;;;3.73;;
56511;SDS011;42408;53.238;5.686;2023-07-31T06:11:20;11.77;;;3.88;;
56511;SDS011;42408;53.238;5.686;2023-07-31T06:13:47;7.18;;;3.42;;
56511;SDS011;42408;53.238;5.686;2023-07-31T06:16:14;9.13;;;3.35;;
56511;SDS011;42408;53.238;5.686;2023-07-31T06:18:40;6.40;;;2.70;;
56511;SDS011;42408;53.238;5.686;2023-07-31T06:21:06;9.48;;;3.40;;
56511;SDS011;42408;53.238;5.686;2023-07-31T06:23:32;8.13;;;2.95;;
56511;SDS011;42408;53.238;5.686;2023-07-31T06:25:58;8.27;;;3.20;;
56511;SDS011;42408;53.238;5.686;2023-07-31T06:28:30;12.47;;;3.70;;
56511;SDS011;42408;53.238;5.686;2023-07-31T06:30:59;5.28;;;2.28;;
56511;SDS011;42408;53.238;5.686;2023-07-31T06:33:25;7.85;;;2.08;;
56511;SDS011;42408;53.238;5.686;2023-07-31T06:35:51;8.60;;;2.20;;
56511;SDS011;42408;53.238;5.686;2023-07-31T06:38:22;5.97;;;2.23;;
56511;SDS011;42408;53.238;5.686;2023-07-31T06:40:49;7.53;;;2.95;;
56511;SDS011;42408;53.238;5.686;2023-07-31T06:43:15;10.03;;;3.83;;
56511;SDS011;42408;53.238;5.686;2023-07-31T06:45:41;10.37;;;4.30;;
56511;SDS011;42408;53.238;5.686;2023-07-31T06:48:06;10.90;;;4.27;;
56511;SDS011;42408;53.238;5.686;2023-07-31T06:50:32;6.80;;;2.93;;
56511;SDS011;42408;53.238;5.686;2023-07-31T06:52:58;6.87;;;2.53;;
56511;SDS011;42408;53.238;5.686;2023-07-31T06:55:24;7.43;;;2.25;;
56511;SDS011;42408;53.238;5.686;2023-07-31T06:57:51;6.28;;;2.38;;
56511;SDS011;42408;53.238;5.686;2023-07-31T07:00:19;7.45;;;2.50;;
56511;SDS011;42408;53.238;5.686;2023-07-31T07:02:46;9.38;;;2.67;;
56511;SDS011;42408;53.238;5.686;2023-07-31T07:05:15;6.65;;;2.75;;
56511;SDS011;42408;53.238;5.686;2023-07-31T07:07:41;6.15;;;2.80;;
56511;SDS011;42408;53.238;5.686;2023-07-31T07:10:08;9.73;;;3.38;;
56511;SDS011;42408;53.238;5.686;2023-07-31T07:12:33;8.43;;;3.53;;
56511;SDS011;42408;53.238;5.686;2023-07-31T07:14:59;8.03;;;2.60;;
56511;SDS011;42408;53.238;5.686;2023-07-31T07:17:26;7.57;;;3.13;;
56511;SDS011;42408;53.238;5.686;2023-07-31T07:19:52;7.43;;;2.45;;
56511;SDS011;42408;53.238;5.686;2023-07-31T07:22:18;7.47;;;2.43;;
56511;SDS011;42408;53.238;5.686;2023-07-31T07:24:44;5.17;;;2.43;;
56511;SDS011;42408;53.238;5.686;2023-07-31T07:27:10;3.90;;;1.70;;
56511;SDS011;42408;53.238;5.686;2023-07-31T07:29:35;3.73;;;1.80;;
56511;SDS011;42408;53.238;5.686;2023-07-31T07:32:03;5.95;;;2.00;;
56511;SDS011;42408;53.238;5.686;2023-07-31T07:34:30;4.78;;;1.95;;
56511;SDS011;42408;53.238;5.686;2023-07-31T07:36:55;6.23;;;1.77;;
56511;SDS011;42408;53.238;5.686;2023-07-31T07:39:21;3.37;;;1.57;;
56511;SDS011;42408;53.238;5.686;2023-07-31T07:41:47;7.53;;;1.70;;
56511;SDS011;42408;53.238;5.686;2023-07-31T07:44:13;3.42;;;1.40;;
56511;SDS011;42408;53.238;5.686;2023-07-31T07:46:39;3.00;;;1.52;;
56511;SDS011;42408;53.238;5.686;2023-07-31T07:49:05;2.45;;;1.40;;
56511;SDS011;42408;53.238;5.686;2023-07-31T07:51:31;4.00;;;1.40;;
56511;SDS011;42408;53.238;5.686;2023-07-31T07:53:57;3.78;;;1.30;;
56511;SDS011;42408;53.238;5.686;2023-07-31T07:56:25;5.43;;;1.48;;
56511;SDS011;42408;53.238;5.686;2023-07-31T07:58:51;4.72;;;1.40;;
56511;SDS011;42408;53.238;5.686;2023-07-31T08:01:17;4.27;;;1.43;;
56511;SDS011;42408;53.238;5.686;2023-07-31T08:03:43;6.93;;;1.87;;
56511;SDS011;42408;53.238;5.686;2023-07-31T08:06:08;5.30;;;1.70;;
56511;SDS011;42408;53.238;5.686;2023-07-31T08:08:35;5.75;;;1.52;;
56511;SDS011;42408;53.238;5.686;2023-07-31T08:11:01;10.60;;;1.95;;
56511;SDS011;42408;53.238;5.686;2023-07-31T08:13:27;5.50;;;1.47;;
56511;SDS011;42408;53.238;5.686;2023-07-31T08:15:53;3.73;;;1.60;;
56511;SDS011;42408;53.238;5.686;2023-07-31T08:18:18;7.43;;;1.70;;
56511;SDS011;42408;53.238;5.686;2023-07-31T08:20:44;4.60;;;1.70;;
56511;SDS011;42408;53.238;5.686;2023-07-31T08:23:10;2.77;;;1.20;;
56511;SDS011;42408;53.238;5.686;2023-07-31T08:25:36;4.90;;;1.43;;
56511;SDS011;42408;53.238;5.686;2023-07-31T08:28:02;5.40;;;1.45;;
56511;SDS011;42408;53.238;5.686;2023-07-31T08:30:28;4.43;;;1.65;;
56511;SDS011;42408;53.238;5.686;2023-07-31T08:32:54;6.60;;;1.97;;
56511;SDS011;42408;53.238;5.686;2023-07-31T08:35:20;8.27;;;2.10;;
56511;SDS011;42408;53.238;5.686;2023-07-31T08:37:45;6.37;;;1.67;;
56511;SDS011;42408;53.238;5.686;2023-07-31T08:40:11;5.93;;;1.80;;
56511;SDS011;42408;53.238;5.686;2023-07-31T08:42:48;8.27;;;1.88;;
56511;SDS011;42408;53.238;5.686;2023-07-31T08:45:16;7.53;;;1.70;;
56511;SDS011;42408;53.238;5.686;2023-07-31T08:47:50;6.95;;;2.10;;
56511;SDS011;42408;53.238;5.686;2023-07-31T08:50:18;5.60;;;1.88;;
56511;SDS011;42408;53.238;5.686;2023-07-31T08:52:46;6.15;;;1.88;;
56511;SDS011;42408;53.238;5.686;2023-07-31T08:55:12;3.83;;;1.70;;
56511;SDS011;42408;53.238;5.686;2023-07-31T08:57:38;4.72;;;1.90;;
56511;SDS011;42408;53.238;5.686;2023-07-31T09:00:05;4.03;;;1.45;;
56511;SDS011;42408;53.238;5.686;2023-07-31T09:02:41;2.85;;;1.40;;
56511;SDS011;42408;53.238;5.686;2023-07-31T09:05:27;3.58;;;1.50;;
56511;SDS011;42408;53.238;5.686;2023-07-31T09:07:55;2.28;;;1.20;;
56511;SDS011;42408;53.238;5.686;2023-07-31T09:10:22;3.10;;;1.48;;
56511;SDS011;42408;53.238;5.686;2023-07-31T09:12:48;4.68;;;1.92;;
56511;SDS011;42408;53.238;5.686;2023-07-31T09:15:16;3.60;;;1.30;;
56511;SDS011;42408;53.238;5.686;2023-07-31T09:17:42;3.58;;;1.50;;
56511;SDS011;42408;53.238;5.686;2023-07-31T09:20:15;3.90;;;1.30;;
56511;SDS011;42408;53.238;5.686;2023-07-31T09:22:41;3.50;;;1.20;;
56511;SDS011;42408;53.238;5.686;2023-07-31T09:25:14;2.22;;;1.00;;
56511;SDS011;42408;53.238;5.686;2023-07-31T09:27:47;3.28;;;1.13;;
56511;SDS011;42408;53.238;5.686;2023-07-31T09:30:16;4.85;;;1.10;;
56511;SDS011;42408;53.238;5.686;2023-07-31T09:32:43;3.72;;;1.25;;
56511;SDS011;42408;53.238;5.686;2023-07-31T09:35:13;2.78;;;1.10;;
56511;SDS011;42408;53.238;5.686;2023-07-31T09:37:55;2.25;;;1.00;;
56511;SDS011;42408;53.238;5.686;2023-07-31T09:40:26;6.47;;;2.28;;
56511;SDS011;42408;53.238;5.686;2023-07-31T09:42:56;3.22;;;1.10;;
56511;SDS011;42408;53.238;5.686;2023-07-31T09:45:23;2.83;;;1.00;;
56511;SDS011;42408;53.238;5.686;2023-07-31T09:47:50;2.78;;;0.95;;
56511;SDS011;42408;53.238;5.686;2023-07-31T09:50:16;3.50;;;1.02;;
56511;SDS011;42408;53.238;5.686;2023-07-31T09:52:42;3.85;;;0.88;;
56511;SDS011;42408;53.238;5.686;2023-07-31T09:55:08;2.37;;;1.20;;
56511;SDS011;42408;53.238;5.686;2023-07-31T09:57:41;4.32;;;1.40;;
56511;SDS011;42408;53.238;5.686;2023-07-31T10:00:10;4.95;;;1.40;;
56511;SDS011;42408;53.238;5.686;2023-07-31T10:02:36;5.88;;;1.65;;
56511;SDS011;42408;53.238;5.686;2023-07-31T10:05:03;6.72;;;1.63;;
56511;SDS011;42408;53.238;5.686;2023-07-31T10:07:30;5.70;;;1.95;;
56511;SDS011;42408;53.238;5.686;2023-07-31T10:09:59;6.25;;;1.65;;
56511;SDS011;42408;53.238;5.686;2023-07-31T10:12:25;12.98;;;2.75;;
56511;SDS011;42408;53.238;5.686;2023-07-31T10:14:55;4.95;;;1.80;;
56511;SDS011;42408;53.238;5.686;2023-07-31T10:17:21;4.70;;;1.63;;
56511;SDS011;42408;53.238;5.686;2023-07-31T10:22:14;3.28;;;1.88;;
56511;SDS011;42408;53.238;5.686;2023-07-31T10:24:41;7.72;;;2.03;;
56511;SDS011;42408;53.238;5.686;2023-07-31T10:27:08;6.97;;;2.20;;
56511;SDS011;42408;53.238;5.686;2023-07-31T10:29:34;9.80;;;2.70;;
56511;SDS011;42408;53.238;5.686;2023-07-31T10:32:02;5.82;;;2.40;;
56511;SDS011;42408;53.238;5.686;2023-07-31T10:34:31;6.60;;;3.03;;
56511;SDS011;42408;53.238;5.686;2023-07-31T10:37:36;7.47;;;2.97;;
56511;SDS011;42408;53.238;5.686;2023-07-31T10:39:57;10.73;;;2.75;;
56511;SDS011;42408;53.238;5.686;2023-07-31T10:45:32;10.80;;;2.60;;
56511;SDS011;42408;53.238;5.686;2023-07-31T10:48:04;5.25;;;2.10;;
56511;SDS011;42408;53.238;5.686;2023-07-31T10:50:31;6.15;;;2.20;;
56511;SDS011;42408;53.238;5.686;2023-07-31T10:52:58;4.05;;;1.98;;
56511;SDS011;42408;53.238;5.686;2023-07-31T10:55:27;5.25;;;2.10;;
56511;SDS011;42408;53.238;5.686;2023-07-31T10:58:07;4.82;;;2.08;;
56511;SDS011;42408;53.238;5.686;2023-07-31T11:00:38;5.30;;;2.05;;
56511;SDS011;42408;53.238;5.686;2023-07-31T11:03:09;5.68;;;2.10;;
56511;SDS011;42408;53.238;5.686;2023-07-31T11:08:22;7.60;;;2.40;;
56511;SDS011;42408;53.238;5.686;2023-07-31T11:14:00;5.72;;;2.30;;
56511;SDS011;42408;53.238;5.686;2023-07-31T11:16:20;6.13;;;2.47;;
56511;SDS011;42408;53.238;5.686;2023-07-31T11:18:50;5.85;;;2.75;;
56511;SDS011;42408;53.238;5.686;2023-07-31T11:23:46;6.83;;;2.00;;
56511;SDS011;42408;53.238;5.686;2023-07-31T11:26:13;8.00;;;2.45;;
56511;SDS011;42408;53.238;5.686;2023-07-31T11:28:39;5.30;;;2.20;;
56511;SDS011;42408;53.238;5.686;2023-07-31T11:31:08;5.10;;;1.90;;
56511;SDS011;42408;53.238;5.686;2023-07-31T11:33:35;5.15;;;2.13;;
56511;SDS011;42408;53.238;5.686;2023-07-31T11:36:01;4.97;;;1.63;;
56511;SDS011;42408;53.238;5.686;2023-07-31T11:38:28;5.80;;;2.10;;
56511;SDS011;42408;53.238;5.686;2023-07-31T11:40:56;8.07;;;2.50;;
56511;SDS011;42408;53.238;5.686;2023-07-31T11:43:23;6.65;;;2.30;;
56511;SDS011;42408;53.238;5.686;2023-07-31T11:45:53;6.97;;;2.58;;
56511;SDS011;42408;53.238;5.686;2023-07-31T11:48:21;10.18;;;3.17;;
56511;SDS011;42408;53.238;5.686;2023-07-31T11:50:49;6.90;;;2.83;;
56511;SDS011;42408;53.238;5.686;2023-07-31T11:53:16;6.22;;;2.47;;
56511;SDS011;42408;53.238;5.686;2023-07-31T11:55:44;10.32;;;3.03;;
56511;SDS011;42408;53.238;5.686;2023-07-31T12:00:38;11.45;;;2.92;;
56511;SDS011;42408;53.238;5.686;2023-07-31T12:03:04;7.90;;;3.10;;
56511;SDS011;42408;53.238;5.686;2023-07-31T12:05:29;8.00;;;3.27;;
56511;SDS011;42408;53.238;5.686;2023-07-31T12:07:55;7.63;;;2.93;;
56511;SDS011;42408;53.238;5.686;2023-07-31T12:10:25;10.03;;;3.10;;
56511;SDS011;42408;53.238;5.686;2023-07-31T12:13:04;8.35;;;3.67;;
56511;SDS011;42408;53.238;5.686;2023-07-31T12:18:08;9.65;;;3.42;;
56511;SDS011;42408;53.238;5.686;2023-07-31T12:20:42;12.43;;;3.78;;
56511;SDS011;42408;53.238;5.686;2023-07-31T12:23:16;10.93;;;3.47;;
56511;SDS011;42408;53.238;5.686;2023-07-31T12:26:12;6.82;;;2.63;;
56511;SDS011;42408;53.238;5.686;2023-07-31T12:31:12;10.32;;;3.65;;
56511;SDS011;42408;53.238;5.686;2023-07-31T12:33:39;9.18;;;3.63;;
56511;SDS011;42408;53.238;5.686;2023-07-31T12:36:07;7.32;;;3.10;;
56511;SDS011;42408;53.238;5.686;2023-07-31T12:38:34;11.05;;;3.42;;
56511;SDS011;42408;53.238;5.686;2023-07-31T12:41:00;9.20;;;3.33;;
56511;SDS011;42408;53.238;5.686;2023-07-31T12:43:26;8.97;;;3.00;;
56511;SDS011;42408;53.238;5.686;2023-07-31T12:45:54;10.30;;;4.00;;
56511;SDS011;42408;53.238;5.686;2023-07-31T12:48:21;11.02;;;3.42;;
56511;SDS011;42408;53.238;5.686;2023-07-31T12:50:47;12.10;;;3.30;;
56511;SDS011;42408;53.238;5.686;2023-07-31T12:53:12;7.97;;;3.53;;
56511;SDS011;42408;53.238;5.686;2023-07-31T12:55:38;15.40;;;3.93;;
56511;SDS011;42408;53.238;5.686;2023-07-31T12:58:04;13.83;;;3.80;;
56511;SDS011;42408;53.238;5.686;2023-07-31T13:00:29;10.90;;;4.00;;
56511;SDS011;42408;53.238;5.686;2023-07-31T13:02:55;11.90;;;3.60;;
56511;SDS011;42408;53.238;5.686;2023-07-31T13:05:21;7.50;;;3.03;;
56511;SDS011;42408;53.238;5.686;2023-07-31T13:07:47;9.47;;;3.50;;
56511;SDS011;42408;53.238;5.686;2023-07-31T13:12:39;11.90;;;3.33;;
56511;SDS011;42408;53.238;5.686;2023-07-31T13:15:05;11.93;;;3.37;;
56511;SDS011;42408;53.238;5.686;2023-07-31T13:17:31;10.30;;;3.20;;
56511;SDS011;42408;53.238;5.686;2023-07-31T13:19:57;8.73;;;3.30;;
56511;SDS011;42408;53.238;5.686;2023-07-31T13:22:23;8.48;;;2.90;;
56511;SDS011;42408;53.238;5.686;2023-07-31T13:24:49;8.67;;;2.90;;
56511;SDS011;42408;53.238;5.686;2023-07-31T13:27:14;7.90;;;2.77;;
56511;SDS011;42408;53.238;5.686;2023-07-31T13:29:45;9.43;;;3.40;;
56511;SDS011;42408;53.238;5.686;2023-07-31T13:32:11;8.70;;;3.10;;
56511;SDS011;42408;53.238;5.686;2023-07-31T13:34:37;11.77;;;3.50;;
56511;SDS011;42408;53.238;5.686;2023-07-31T13:37:03;12.73;;;3.28;;
56511;SDS011;42408;53.238;5.686;2023-07-31T13:39:30;10.00;;;3.25;;
56511;SDS011;42408;53.238;5.686;2023-07-31T13:41:56;10.65;;;3.28;;
56511;SDS011;42408;53.238;5.686;2023-07-31T13:44:22;9.87;;;3.73;;
56511;SDS011;42408;53.238;5.686;2023-07-31T13:46:48;8.00;;;3.43;;
56511;SDS011;42408;53.238;5.686;2023-07-31T13:49:13;12.73;;;3.57;;
56511;SDS011;42408;53.238;5.686;2023-07-31T13:51:39;10.90;;;3.50;;
56511;SDS011;42408;53.238;5.686;2023-07-31T13:54:05;13.33;;;3.60;;
56511;SDS011;42408;53.238;5.686;2023-07-31T13:56:31;10.77;;;4.07;;
56511;SDS011;42408;53.238;5.686;2023-07-31T13:58:57;13.23;;;3.95;;
56511;SDS011;42408;53.238;5.686;2023-07-31T14:01:23;8.70;;;3.37;;
56511;SDS011;42408;53.238;5.686;2023-07-31T14:03:49;11.57;;;3.77;;
56511;SDS011;42408;53.238;5.686;2023-07-31T14:06:15;11.90;;;5.10;;
56511;SDS011;42408;53.238;5.686;2023-07-31T14:08:40;11.07;;;3.70;;
56511;SDS011;42408;53.238;5.686;2023-07-31T14:11:06;12.20;;;3.73;;
56511;SDS011;42408;53.238;5.686;2023-07-31T14:13:32;11.27;;;4.30;;
56511;SDS011;42408;53.238;5.686;2023-07-31T14:15:57;10.93;;;3.57;;
56511;SDS011;42408;53.238;5.686;2023-07-31T14:18:23;11.30;;;3.70;;
56511;SDS011;42408;53.238;5.686;2023-07-31T14:20:49;9.77;;;3.77;;
56511;SDS011;42408;53.238;5.686;2023-07-31T14:23:14;9.33;;;3.43;;
56511;SDS011;42408;53.238;5.686;2023-07-31T14:25:40;9.75;;;3.60;;
56511;SDS011;42408;53.238;5.686;2023-07-31T14:28:06;11.43;;;3.75;;
56511;SDS011;42408;53.238;5.686;2023-07-31T14:30:32;9.97;;;3.33;;
56511;SDS011;42408;53.238;5.686;2023-07-31T14:32:57;12.87;;;3.90;;
56511;SDS011;42408;53.238;5.686;2023-07-31T14:35:25;11.98;;;3.40;;
56511;SDS011;42408;53.238;5.686;2023-07-31T14:37:51;13.90;;;4.10;;
56511;SDS011;42408;53.238;5.686;2023-07-31T14:40:16;11.63;;;3.90;;
56511;SDS011;42408;53.238;5.686;2023-07-31T14:42:42;12.57;;;3.67;;
56511;SDS011;42408;53.238;5.686;2023-07-31T14:45:08;9.57;;;3.53;;
56511;SDS011;42408;53.238;5.686;2023-07-31T14:47:35;12.35;;;3.38;;
56511;SDS011;42408;53.238;5.686;2023-07-31T14:50:01;8.10;;;3.30;;
56511;SDS011;42408;53.238;5.686;2023-07-31T14:52:27;11.13;;;3.15;;
56511;SDS011;42408;53.238;5.686;2023-07-31T14:54:53;12.20;;;4.33;;
56511;SDS011;42408;53.238;5.686;2023-07-31T14:57:19;10.23;;;4.10;;
56511;SDS011;42408;53.238;5.686;2023-07-31T14:59:45;11.15;;;3.10;;
56511;SDS011;42408;53.238;5.686;2023-07-31T15:02:13;10.63;;;3.40;;
56511;SDS011;42408;53.238;5.686;2023-07-31T15:04:39;13.80;;;3.83;;
56511;SDS011;42408;53.238;5.686;2023-07-31T15:07:05;11.33;;;3.13;;
56511;SDS011;42408;53.238;5.686;2023-07-31T15:09:31;11.15;;;3.20;;